Time;durP1;ratioP1;P1;durP2;ratioP2;P2;SDS_P1;SDS_P2;PMS_P1;PMS_P2;Temp;Humidity;BMP_temperature;BMP_pressure;BME280_temperature;BME280_humidity;BME280_pressure;Samples;Min_cycle;Max_cycle;Signal;HPM_P1;HPM_P2
2021/08/31 00:00:08;;;;;;;2.50;2.30;;;19.30;71.90;;;;;;10495301;28;20206;-62
2021/08/31 00:05:30;;;;;;;2.20;2.00;;;19.40;72.70;;;;;;10495957;28;20216;-61
2021/08/31 00:10:52;;;;;;;2.70;2.50;;;19.30;73.00;;;;;;10495084;28;20604;-61
2021/08/31 00:16:16;;;;;;;2.50;2.30;;;19.30;73.20;;;;;;10494962;28;20696;-60
2021/08/31 00:21:38;;;;;;;2.50;2.30;;;19.30;71.90;;;;;;10493980;28;20196;-62
2021/08/31 00:27:00;;;;;;;2.80;2.17;;;19.40;72.40;;;;;;10493580;28;20223;-62
2021/08/31 00:32:24;;;;;;;2.50;2.30;;;19.30;72.90;;;;;;10494361;28;20208;-60
2021/08/31 00:37:46;;;;;;;2.83;2.53;;;19.30;73.20;;;;;;10494375;28;20564;-61
2021/08/31 00:43:08;;;;;;;2.90;2.60;;;19.40;72.30;;;;;;10492656;28;20224;-62
2021/08/31 00:48:31;;;;;;;2.57;2.37;;;19.30;72.20;;;;;;10492428;28;20597;-59
2021/08/31 00:53:54;;;;;;;2.53;2.33;;;19.30;73.00;;;;;;10493797;28;20242;-61
2021/08/31 00:59:18;;;;;;;2.50;2.30;;;19.30;73.20;;;;;;10474447;28;20204;-60
2021/08/31 01:04:42;;;;;;;2.47;2.27;;;19.30;72.30;;;;;;10452006;28;20209;-61
2021/08/31 01:10:06;;;;;;;2.60;2.40;;;19.40;71.80;;;;;;10452349;28;20193;-61
2021/08/31 01:15:30;;;;;;;2.50;2.30;;;19.30;72.80;;;;;;10458815;28;20220;-60
2021/08/31 01:20:56;;;;;;;2.70;2.50;;;19.30;73.10;;;;;;10493069;28;20196;-61
2021/08/31 01:26:20;;;;;;;2.60;2.40;;;19.30;72.70;;;;;;10493685;28;20216;-61
2021/08/31 01:31:42;;;;;;;2.93;2.70;;;19.30;71.60;;;;;;10451747;28;20295;-59
2021/08/31 01:37:07;;;;;;;2.70;2.50;;;19.30;72.70;;;;;;10451249;28;20209;-62
2021/08/31 01:42:31;;;;;;;2.60;2.40;;;19.30;73.00;;;;;;10482370;28;20192;-57
2021/08/31 01:47:53;;;;;;;3.33;2.23;;;19.30;72.90;;;;;;10484344;28;20207;-61
2021/08/31 01:53:15;;;;;;;2.67;2.47;;;19.40;71.70;;;;;;10491911;28;20223;-60
2021/08/31 01:58:38;;;;;;;2.60;2.40;;;19.40;72.80;;;;;;10490839;28;20211;-62
2021/08/31 02:04:01;;;;;;;2.57;2.37;;;19.30;73.10;;;;;;10486587;28;20215;-61
2021/08/31 02:09:23;;;;;;;2.47;2.20;;;19.30;73.10;;;;;;10492323;28;20689;-61
2021/08/31 02:14:46;;;;;;;2.67;2.47;;;19.40;71.90;;;;;;10492494;28;20712;-61
2021/08/31 02:20:10;;;;;;;2.73;2.50;;;19.30;73.00;;;;;;10491561;28;20219;-62
2021/08/31 02:25:32;;;;;;;2.90;2.43;;;19.30;73.20;;;;;;10491871;28;20227;-62
2021/08/31 02:30:56;;;;;;;2.90;2.60;;;19.30;73.00;;;;;;10491055;28;20212;-62
2021/08/31 02:36:18;;;;;;;2.80;2.60;;;19.30;71.80;;;;;;10491418;28;20212;-61
2021/08/31 02:41:40;;;;;;;3.03;2.73;;;19.30;72.90;;;;;;10491296;28;20193;-61
2021/08/31 02:47:04;;;;;;;2.60;2.40;;;19.30;73.10;;;;;;10489943;28;20223;-61
2021/08/31 02:52:26;;;;;;;2.50;2.30;;;19.30;73.00;;;;;;10489943;28;20601;-62
2021/08/31 02:57:48;;;;;;;2.63;2.43;;;19.30;71.60;;;;;;10483542;28;20596;-59
2021/08/31 03:03:11;;;;;;;2.90;2.57;;;19.30;72.60;;;;;;10497058;28;20692;-60
2021/08/31 03:08:35;;;;;;;2.80;2.60;;;19.30;73.00;;;;;;10497931;28;20196;-59
2021/08/31 03:13:57;;;;;;;2.60;2.40;;;19.30;73.10;;;;;;10497722;28;20221;-62
2021/08/31 03:19:23;;;;;;;2.70;2.50;;;19.30;71.80;;;;;;10497796;28;20215;-61
2021/08/31 03:24:45;;;;;;;2.50;2.30;;;19.30;72.60;;;;;;10497779;28;20212;-61
2021/08/31 03:30:08;;;;;;;2.90;2.70;;;19.30;73.00;;;;;;10496144;28;20205;-62
2021/08/31 03:35:31;;;;;;;3.00;2.70;;;19.30;73.30;;;;;;10497618;28;20708;-60
2021/08/31 03:40:53;;;;;;;2.90;2.70;;;19.30;72.00;;;;;;10497308;28;20195;-62
2021/08/31 03:46:15;;;;;;;3.20;2.90;;;19.30;72.70;;;;;;10496580;28;20227;-62
2021/08/31 03:51:39;;;;;;;2.80;2.50;;;19.30;73.10;;;;;;10495265;28;20220;-63
2021/08/31 03:57:02;;;;;;;2.37;2.17;;;19.20;73.20;;;;;;10491045;28;20228;-62
2021/08/31 04:02:24;;;;;;;3.07;2.40;;;19.30;72.00;;;;;;10494989;28;20200;-62
2021/08/31 04:07:47;;;;;;;2.80;2.60;;;19.30;72.60;;;;;;10495218;28;20203;-62
2021/08/31 04:13:13;;;;;;;2.57;2.37;;;19.30;73.10;;;;;;10495626;28;20224;-62
2021/08/31 04:18:35;;;;;;;2.90;2.70;;;19.30;73.20;;;;;;10495820;28;20429;-60
2021/08/31 04:23:58;;;;;;;2.90;2.70;;;19.30;71.90;;;;;;10494191;28;20213;-60
2021/08/31 04:29:20;;;;;;;2.77;2.43;;;19.30;72.70;;;;;;10477569;28;20196;-62
2021/08/31 04:34:42;;;;;;;2.40;2.20;;;19.30;73.00;;;;;;10494487;28;20224;-62
2021/08/31 04:40:07;;;;;;;3.13;2.60;;;19.20;73.10;;;;;;10494834;28;20200;-61
2021/08/31 04:45:29;;;;;;;3.17;2.87;;;19.30;71.90;;;;;;10493519;28;20231;-62
2021/08/31 04:50:51;;;;;;;3.87;2.50;;;19.20;72.70;;;;;;10493547;28;20193;-62
2021/08/31 04:56:15;;;;;;;2.90;2.60;;;19.30;73.00;;;;;;10493323;28;20220;-61
2021/08/31 05:01:37;;;;;;;2.50;2.30;;;19.20;73.10;;;;;;10493295;28;20196;-62
2021/08/31 05:06:59;;;;;;;2.60;2.27;;;19.30;72.00;;;;;;10493563;28;20584;-63
2021/08/31 05:12:22;;;;;;;3.20;2.60;;;19.20;72.90;;;;;;10491812;28;20716;-61
2021/08/31 05:17:45;;;;;;;2.70;2.50;;;19.20;73.20;;;;;;10462010;28;20196;-62
2021/08/31 05:23:08;;;;;;;3.00;2.50;;;19.20;73.10;;;;;;10455958;28;20212;-62
2021/08/31 05:28:32;;;;;;;2.70;2.50;;;19.30;72.00;;;;;;10492617;28;20192;-61
2021/08/31 05:33:54;;;;;;;2.90;2.60;;;19.20;73.00;;;;;;10491842;28;20251;-61
2021/08/31 05:39:16;;;;;;;2.50;2.30;;;19.20;73.20;;;;;;10491817;28;20208;-58
2021/08/31 05:44:41;;;;;;;2.67;2.30;;;19.20;73.10;;;;;;10500325;22;20224;-63
2021/08/31 05:50:04;;;;;;;2.47;2.27;;;19.20;72.50;;;;;;10486046;28;20192;-63
2021/08/31 05:55:26;;;;;;;2.67;2.47;;;19.20;73.40;;;;;;10461108;28;20294;-64
2021/08/31 06:00:49;;;;;;;2.97;2.67;;;19.20;73.50;;;;;;10450291;28;20196;-64
2021/08/31 06:06:15;;;;;;;3.27;2.70;;;19.20;72.60;;;;;;10448466;28;20209;-62
2021/08/31 06:11:38;;;;;;;2.77;2.57;;;19.20;72.70;;;;;;10409595;28;20696;-63
2021/08/31 06:17:03;;;;;;;2.67;2.47;;;19.20;73.10;;;;;;10416996;28;20221;-63
2021/08/31 06:22:25;;;;;;;3.10;2.80;;;19.20;73.40;;;;;;10442124;28;20216;-63
2021/08/31 06:27:47;;;;;;;2.93;2.70;;;19.30;72.30;;;;;;10450180;28;20217;-65
2021/08/31 06:33:10;;;;;;;2.70;2.50;;;19.30;72.60;;;;;;10446186;28;20232;-64
2021/08/31 06:38:33;;;;;;;3.67;3.10;;;19.20;73.10;;;;;;10420606;28;20214;-64
2021/08/31 06:43:55;;;;;;;4.10;3.37;;;19.20;73.50;;;;;;10434723;28;20200;-60
2021/08/31 06:49:18;;;;;;;5.83;4.80;;;19.20;73.80;;;;;;10451687;28;20200;-58
2021/08/31 06:54:40;;;;;;;4.50;4.10;;;19.20;73.90;;;;;;10443895;28;20243;-63
2021/08/31 07:00:03;;;;;;;5.37;4.27;;;19.10;74.00;;;;;;10463891;28;20668;-63
2021/08/31 07:05:27;;;;;;;5.07;4.47;;;19.10;74.20;;;;;;10465386;28;20224;-59
2021/08/31 07:10:49;;;;;;;5.57;4.73;;;19.10;74.30;;;;;;10490464;28;20193;-59
2021/08/31 07:16:11;;;;;;;4.90;4.30;;;19.10;74.40;;;;;;10443953;28;20221;-60
2021/08/31 07:21:35;;;;;;;8.27;4.13;;;19.10;74.60;;;;;;10423432;28;20256;-61
2021/08/31 07:26:57;;;;;;;5.77;3.70;;;19.10;74.70;;;;;;10417371;28;20592;-58
2021/08/31 07:32:19;;;;;;;5.03;4.23;;;19.10;74.90;;;;;;10450430;28;20220;-61
2021/08/31 07:37:43;;;;;;;5.10;4.20;;;19.10;74.90;;;;;;10436456;28;20224;-59
2021/08/31 07:43:05;;;;;;;5.03;3.83;;;19.00;74.90;;;;;;10453687;28;20696;-60
2021/08/31 07:48:27;;;;;;;4.27;3.50;;;19.00;75.00;;;;;;10455487;28;20225;-59
2021/08/31 07:53:51;;;;;;;5.03;3.73;;;19.10;75.10;;;;;;10453325;28;20217;-60
2021/08/31 07:59:13;;;;;;;3.90;3.50;;;19.10;75.30;;;;;;10454394;28;20204;-61
2021/08/31 08:04:35;;;;;;;5.60;3.67;;;19.10;75.20;;;;;;10453927;28;20266;-61
2021/08/31 08:09:59;;;;;;;7.87;3.63;;;19.10;75.30;;;;;;10493202;28;20189;-61
2021/08/31 08:15:23;;;;;;;5.23;3.60;;;19.10;75.40;;;;;;10494727;28;20216;-54
2021/08/31 08:20:45;;;;;;;4.80;3.50;;;19.00;75.30;;;;;;10490871;28;20227;-54
2021/08/31 08:26:09;;;;;;;4.93;3.80;;;19.00;75.50;;;;;;10495285;28;20212;-54
2021/08/31 08:31:33;;;;;;;4.93;3.63;;;19.00;75.50;;;;;;10454180;28;20244;-57
2021/08/31 08:36:57;;;;;;;3.80;3.20;;;19.00;75.60;;;;;;10461462;28;20227;-57
2021/08/31 08:42:21;;;;;;;6.57;3.60;;;19.00;75.60;;;;;;10493938;28;20195;-55
2021/08/31 08:47:43;;;;;;;4.27;3.20;;;19.00;75.80;;;;;;10488445;28;20224;-52
2021/08/31 08:53:05;;;;;;;5.03;3.70;;;19.00;75.80;;;;;;10456343;28;20724;-52
2021/08/31 08:58:29;;;;;;;4.97;4.10;;;19.00;75.90;;;;;;10451697;28;20218;-53
2021/08/31 09:03:55;;;;;;;7.13;3.63;;;19.00;75.90;;;;;;10452249;28;20193;-55
2021/08/31 09:09:17;;;;;;;4.17;3.17;;;19.00;76.00;;;;;;10452315;28;20208;-53
2021/08/31 09:14:41;;;;;;;4.67;3.33;;;19.00;76.00;;;;;;10453912;28;20225;-53
2021/08/31 09:20:15;;;;;;;3.67;3.20;;;19.00;75.90;;;;;;10451643;28;20201;-55
2021/08/31 09:25:39;;;;;;;3.67;3.20;;;19.00;75.60;;;;;;10427699;28;20217;-59
2021/08/31 09:31:05;;;;;;;3.20;2.90;;;19.00;75.60;;;;;;10439599;28;20197;-61
2021/08/31 09:36:27;;;;;;;3.57;3.07;;;19.00;75.50;;;;;;10412773;28;20229;-58
2021/08/31 09:41:50;;;;;;;4.30;3.10;;;19.00;75.50;;;;;;10440640;28;20201;-61
2021/08/31 09:47:14;;;;;;;5.17;3.33;;;19.00;75.50;;;;;;10419768;28;20251;-57
2021/08/31 09:52:36;;;;;;;3.33;2.80;;;19.00;75.50;;;;;;10445953;28;20216;-60
2021/08/31 09:58:09;;;;;;;3.57;3.07;;;19.00;75.50;;;;;;10445899;28;20221;-61
2021/08/31 10:03:33;;;;;;;3.47;2.83;;;19.00;75.50;;;;;;10446777;28;20838;-62
2021/08/31 10:08:56;;;;;;;3.77;2.70;;;19.00;75.50;;;;;;10450996;28;20206;-63
2021/08/31 10:14:20;;;;;;;3.63;3.10;;;19.00;75.60;;;;;;10446550;28;20633;-64
2021/08/31 10:19:44;;;;;;;3.80;3.20;;;19.00;75.90;;;;;;10459164;28;20207;-60
2021/08/31 10:25:07;;;;;;;4.07;3.13;;;19.00;76.00;;;;;;10451856;28;20221;-63
2021/08/31 10:30:37;;;;;;;3.07;2.73;;;19.00;76.00;;;;;;10420579;28;20204;-65
2021/08/31 10:36:02;;;;;;;3.37;2.93;;;19.00;76.10;;;;;;10456136;28;20435;-64
2021/08/31 10:41:45;;;;;;;3.10;2.73;;;19.10;76.10;;;;;;10451745;28;20515;-57
2021/08/31 10:47:30;;;;;;;3.37;2.80;;;19.10;75.90;;;;;;10447270;28;20224;-57
2021/08/31 10:53:02;;;;;;;3.53;2.70;;;19.10;76.00;;;;;;10447100;28;20206;-57
2021/08/31 10:58:48;;;;;;;3.13;2.50;;;19.10;76.20;;;;;;10442976;28;20732;-53
2021/08/31 11:04:26;;;;;;;3.13;2.63;;;19.00;76.10;;;;;;10435767;28;20626;-52
2021/08/31 11:09:49;;;;;;;4.27;2.80;;;19.00;76.70;;;;;;10455815;28;20189;-51
2021/08/31 11:15:19;;;;;;;3.33;2.70;;;19.00;76.30;;;;;;10457220;28;20227;-52
2021/08/31 11:20:42;;;;;;;3.40;2.87;;;19.00;76.30;;;;;;10444994;28;20216;-63
2021/08/31 11:26:06;;;;;;;3.40;2.97;;;19.00;76.40;;;;;;10454301;28;20685;-63
2021/08/31 11:31:28;;;;;;;2.93;2.67;;;19.00;76.40;;;;;;10457288;28;20615;-62
2021/08/31 11:37:02;;;;;;;3.20;2.80;;;19.00;76.40;;;;;;10432213;28;20224;-55
2021/08/31 11:42:25;;;;;;;3.40;2.80;;;19.00;76.50;;;;;;10454167;28;20197;-52
2021/08/31 11:47:53;;;;;;;3.40;3.07;;;19.00;76.60;;;;;;10525341;22;20607;-50
2021/08/31 11:53:17;;;;;;;3.07;2.77;;;19.00;76.60;;;;;;10538302;28;20200;-50
2021/08/31 11:58:45;;;;;;;3.00;2.70;;;19.00;76.60;;;;;;10521669;28;20230;-55
2021/08/31 12:04:17;;;;;;;3.13;2.57;;;19.00;76.60;;;;;;10530043;28;20199;-63
2021/08/31 12:09:42;;;;;;;4.17;2.97;;;19.00;76.60;;;;;;10527015;28;20304;-63
2021/08/31 12:15:07;;;;;;;3.77;3.10;;;19.00;76.80;;;;;;10537887;28;20227;-64
2021/08/31 12:20:30;;;;;;;3.73;2.70;;;19.10;76.90;;;;;;10525082;28;20200;-61
2021/08/31 12:25:53;;;;;;;5.82;3.47;;;19.10;76.80;;;;;;10526741;28;20438;-64
2021/08/31 12:31:17;;;;;;;4.33;3.17;;;19.30;76.60;;;;;;10535397;28;20291;-64
2021/08/31 12:36:39;;;;;;;5.17;3.40;;;19.30;76.20;;;;;;10516520;28;20219;-65
2021/08/31 12:42:01;;;;;;;5.63;3.47;;;19.20;75.40;;;;;;10536586;28;20202;-69
2021/08/31 12:47:25;;;;;;;5.33;3.37;;;19.20;74.90;;;;;;10536781;28;20232;-69
2021/08/31 12:53:01;;;;;;;5.50;3.95;;;19.30;74.00;;;;;;10519515;28;20432;-61
2021/08/31 12:58:29;;;;;;;5.87;3.67;;;19.80;71.70;;;;;;10523954;28;20208;-59
2021/08/31 13:03:54;;;;;;;4.80;3.30;;;19.60;71.20;;;;;;10534609;28;20192;-62
2021/08/31 13:09:18;;;;;;;4.07;3.50;;;19.50;72.50;;;;;;10517628;28;20222;-61
2021/08/31 13:14:41;;;;;;;5.23;3.50;;;19.40;73.20;;;;;;10535561;28;20223;-53
2021/08/31 13:20:06;;;;;;;3.60;3.03;;;19.40;72.50;;;;;;10525735;28;20196;-62
2021/08/31 13:25:28;;;;;;;3.83;3.17;;;19.40;72.80;;;;;;10494231;28;20220;-60
2021/08/31 13:30:50;;;;;;;5.83;3.30;;;19.40;73.60;;;;;;10525156;28;20200;-56
2021/08/31 13:36:13;;;;;;;5.97;2.70;;;19.30;73.40;;;;;;10534524;28;20612;-56
2021/08/31 13:41:36;;;;;;;5.33;3.23;;;19.40;72.80;;;;;;10531886;28;20195;-59
2021/08/31 13:46:58;;;;;;;4.80;3.03;;;19.30;73.70;;;;;;10534824;28;20215;-54
2021/08/31 13:52:21;;;;;;;4.47;3.13;;;19.30;74.00;;;;;;10530026;28;20195;-54
2021/08/31 13:57:43;;;;;;;4.63;3.37;;;19.30;73.30;;;;;;10533344;28;20224;-56
2021/08/31 14:03:06;;;;;;;3.17;2.83;;;19.30;73.60;;;;;;10534168;28;20199;-56
2021/08/31 14:08:29;;;;;;;3.90;3.17;;;19.30;74.20;;;;;;10532928;28;20223;-62
2021/08/31 14:13:51;;;;;;;4.67;2.80;;;19.30;73.70;;;;;;10507413;28;20228;-49
2021/08/31 14:19:13;;;;;;;3.77;2.83;;;19.40;72.60;;;;;;10492857;28;20220;-52
2021/08/31 14:24:37;;;;;;;4.33;3.10;;;19.30;73.50;;;;;;10493225;28;20585;-54
2021/08/31 14:29:59;;;;;;;4.07;3.10;;;19.30;73.90;;;;;;10519916;28;20219;-51
2021/08/31 14:35:21;;;;;;;3.60;2.97;;;19.30;73.50;;;;;;10530989;28;20227;-47
2021/08/31 14:40:44;;;;;;;3.93;3.30;;;19.30;74.00;;;;;;10530286;28;20270;-64
2021/08/31 14:46:06;;;;;;;4.23;3.30;;;19.30;74.30;;;;;;10530227;28;20231;-64
2021/08/31 14:51:29;;;;;;;4.77;2.93;;;19.30;73.40;;;;;;10497402;28;20309;-60
2021/08/31 14:56:52;;;;;;;5.30;3.27;;;19.30;73.10;;;;;;10532393;28;20573;-62
2021/08/31 15:02:15;;;;;;;4.30;2.67;;;19.30;73.80;;;;;;10572743;28;20664;-62
2021/08/31 15:07:37;;;;;;;3.57;2.93;;;19.30;73.80;;;;;;10529903;28;20212;-62
2021/08/31 15:13:00;;;;;;;4.40;3.17;;;19.30;72.60;;;;;;10539729;28;20202;-62
2021/08/31 15:18:22;;;;;;;4.07;3.00;;;19.40;73.50;;;;;;10538892;28;20207;-60
2021/08/31 15:23:45;;;;;;;3.80;2.80;;;19.30;73.80;;;;;;10539034;28;20192;-61
2021/08/31 15:29:10;;;;;;;3.90;2.70;;;19.30;73.30;;;;;;10527923;28;20248;-63
2021/08/31 15:34:34;;;;;;;5.53;3.10;;;19.30;73.00;;;;;;10518695;28;20216;-64
2021/08/31 15:39:56;;;;;;;5.17;2.90;;;19.30;73.70;;;;;;10539200;28;20196;-64
2021/08/31 15:45:19;;;;;;;3.97;2.87;;;19.30;74.20;;;;;;10537337;28;20223;-62
2021/08/31 15:50:41;;;;;;;5.23;2.83;;;19.40;72.70;;;;;;10537585;28;20709;-62
2021/08/31 15:56:04;;;;;;;4.33;2.73;;;19.40;73.30;;;;;;10539033;28;20220;-62
2021/08/31 16:01:28;;;;;;;5.67;3.17;;;19.40;73.80;;;;;;10537610;28;20210;-62
2021/08/31 16:06:50;;;;;;;2.90;2.50;;;19.30;73.40;;;;;;10530615;28;20211;-64
2021/08/31 16:12:12;;;;;;;3.30;2.50;;;19.30;72.90;;;;;;10538150;28;20203;-62
2021/08/31 16:17:35;;;;;;;3.80;2.70;;;19.30;73.70;;;;;;10536710;28;20228;-60
2021/08/31 16:22:57;;;;;;;4.60;3.30;;;19.30;73.90;;;;;;10536835;28;20199;-63
2021/08/31 16:28:20;;;;;;;3.27;2.87;;;19.40;72.90;;;;;;10501942;28;20705;-64
2021/08/31 16:33:43;;;;;;;3.17;2.73;;;19.30;73.50;;;;;;10528313;28;20636;-64
2021/08/31 16:39:05;;;;;;;3.23;2.90;;;19.30;74.00;;;;;;10535393;28;20679;-63
2021/08/31 16:44:27;;;;;;;2.93;2.63;;;19.30;73.30;;;;;;10536832;28;20843;-66
2021/08/31 16:49:51;;;;;;;2.87;2.57;;;19.30;73.00;;;;;;10537105;28;20695;-63
2021/08/31 16:55:14;;;;;;;2.87;2.43;;;19.40;73.80;;;;;;10536044;28;20227;-60
2021/08/31 17:00:36;;;;;;;2.80;2.40;;;19.30;73.90;;;;;;10536523;28;20199;-62
2021/08/31 17:06:00;;;;;;;3.33;2.50;;;19.30;72.70;;;;;;10523891;28;20231;-62
2021/08/31 17:11:22;;;;;;;2.93;2.63;;;19.30;73.50;;;;;;10535699;28;20663;-62
2021/08/31 17:16:44;;;;;;;2.43;2.23;;;19.30;73.90;;;;;;10535283;28;20699;-65
2021/08/31 17:22:07;;;;;;;2.90;2.60;;;19.40;73.50;;;;;;10496782;28;20236;-65
2021/08/31 17:27:29;;;;;;;3.10;2.50;;;19.40;73.50;;;;;;10501749;28;20212;-62
2021/08/31 17:32:51;;;;;;;3.20;2.73;;;19.40;74.10;;;;;;10534594;28;20192;-60
2021/08/31 17:38:15;;;;;;;2.73;2.53;;;19.30;74.00;;;;;;10493909;28;20224;-63
2021/08/31 17:43:37;;;;;;;3.00;2.70;;;19.30;72.80;;;;;;10493443;28;20203;-63
2021/08/31 17:49:00;;;;;;;3.53;2.30;;;19.30;73.60;;;;;;10447276;23;20833;-63
2021/08/31 17:54:24;;;;;;;3.57;2.80;;;19.30;74.00;;;;;;10368524;28;20218;-61
2021/08/31 17:59:47;;;;;;;4.03;2.90;;;19.40;73.30;;;;;;10329557;28;20622;-60
2021/08/31 18:05:10;;;;;;;2.40;2.20;;;19.40;73.20;;;;;;10360046;28;20591;-61
2021/08/31 18:10:35;;;;;;;4.27;2.90;;;19.30;73.90;;;;;;10368693;28;20202;-59
2021/08/31 18:15:57;;;;;;;3.13;2.73;;;19.30;74.00;;;;;;10367816;28;20222;-62
2021/08/31 18:21:19;;;;;;;2.37;2.17;;;19.40;73.00;;;;;;10367669;28;20211;-60
2021/08/31 18:26:42;;;;;;;3.07;2.50;;;19.40;73.90;;;;;;10368563;28;20217;-63
2021/08/31 18:32:05;;;;;;;3.03;2.43;;;19.30;74.20;;;;;;10378671;28;20198;-62
2021/08/31 18:37:27;;;;;;;3.40;2.80;;;19.40;73.30;;;;;;10374182;28;20290;-62
2021/08/31 18:42:51;;;;;;;2.80;2.50;;;19.40;73.30;;;;;;10375416;28;20694;-63
2021/08/31 18:48:13;;;;;;;3.60;2.77;;;19.40;73.90;;;;;;10368386;28;20245;-62
2021/08/31 18:53:39;;;;;;;3.53;2.70;;;19.40;74.00;;;;;;10357957;28;20202;-62
2021/08/31 18:59:03;;;;;;;2.97;2.40;;;19.40;72.80;;;;;;10376104;28;20214;-61
2021/08/31 19:04:25;;;;;;;2.60;2.20;;;19.40;73.50;;;;;;10374790;28;20194;-61
2021/08/31 19:09:47;;;;;;;3.07;2.63;;;19.40;73.90;;;;;;10374105;28;20198;-62
2021/08/31 19:15:14;;;;;;;3.60;2.80;;;19.40;73.60;;;;;;10375509;28;20229;-63
2021/08/31 19:20:36;;;;;;;3.87;2.80;;;19.40;72.90;;;;;;10375205;28;20210;-63
2021/08/31 19:25:58;;;;;;;4.53;2.60;;;19.40;73.60;;;;;;10375021;28;20629;-63
2021/08/31 19:31:21;;;;;;;4.60;2.60;;;19.40;73.90;;;;;;10373493;28;20701;-64
2021/08/31 19:36:43;;;;;;;3.30;2.60;;;19.40;73.00;;;;;;10371231;28;20214;-63
2021/08/31 19:42:06;;;;;;;2.83;2.50;;;19.40;73.10;;;;;;10371698;28;20556;-63
2021/08/31 19:47:31;;;;;;;2.63;2.37;;;19.40;73.60;;;;;;10372496;28;20222;-61
2021/08/31 19:52:53;;;;;;;3.23;2.53;;;19.40;73.80;;;;;;10370834;28;20190;-62
2021/08/31 19:58:17;;;;;;;2.60;2.20;;;19.40;73.20;;;;;;10370059;28;20218;-62
2021/08/31 20:03:40;;;;;;;2.87;2.20;;;19.40;73.80;;;;;;10371334;28;20697;-63
2021/08/31 20:09:02;;;;;;;3.10;2.20;;;19.40;73.90;;;;;;10371476;28;20706;-62
2021/08/31 20:14:27;;;;;;;3.20;2.40;;;19.40;73.10;;;;;;10371895;28;20214;-61
2021/08/31 20:19:50;;;;;;;3.23;2.30;;;19.40;73.80;;;;;;10371501;28;20198;-63
2021/08/31 20:25:12;;;;;;;3.07;2.33;;;19.40;74.00;;;;;;10371433;28;20598;-63
2021/08/31 20:30:35;;;;;;;3.47;2.70;;;19.40;73.00;;;;;;10371596;28;20190;-60
2021/08/31 20:35:58;;;;;;;3.70;2.20;;;19.40;73.70;;;;;;10371846;28;20228;-61
2021/08/31 20:41:21;;;;;;;3.80;2.63;;;19.40;74.00;;;;;;10372226;28;20201;-61
2021/08/31 20:46:43;;;;;;;2.47;2.20;;;19.50;73.30;;;;;;10371402;28;20706;-62
2021/08/31 20:52:07;;;;;;;2.57;2.37;;;19.40;73.40;;;;;;10371748;28;20203;-63
2021/08/31 20:57:29;;;;;;;2.50;2.30;;;19.40;73.80;;;;;;10371473;28;20227;-63
2021/08/31 21:02:51;;;;;;;2.47;2.00;;;19.40;73.60;;;;;;10371256;28;20579;-61
2021/08/31 21:08:14;;;;;;;2.43;2.20;;;19.40;73.30;;;;;;10371181;28;20218;-63
2021/08/31 21:13:36;;;;;;;2.40;2.20;;;19.40;73.80;;;;;;10370946;28;20586;-62
2021/08/31 21:18:58;;;;;;;3.70;2.27;;;19.40;74.50;;;;;;10371127;28;20225;-62
2021/08/31 21:24:22;;;;;;;2.50;2.17;;;19.40;72.90;;;;;;10371172;28;20559;-60
2021/08/31 21:29:44;;;;;;;3.60;2.50;;;19.40;73.70;;;;;;10370357;28;20226;-63
2021/08/31 21:35:07;;;;;;;2.50;2.17;;;19.40;73.90;;;;;;10336659;28;20225;-64
2021/08/31 21:40:31;;;;;;;2.23;2.00;;;19.40;72.80;;;;;;10369496;28;20209;-63
2021/08/31 21:45:53;;;;;;;2.17;1.97;;;19.40;73.40;;;;;;10368205;28;20732;-62
2021/08/31 21:51:15;;;;;;;3.80;2.53;;;19.40;73.70;;;;;;10370022;28;20209;-63
2021/08/31 21:56:38;;;;;;;2.43;2.07;;;19.40;73.10;;;;;;10366252;28;20246;-63
2021/08/31 22:02:01;;;;;;;2.03;1.83;;;19.50;73.60;;;;;;10379630;28;20209;-63
2021/08/31 22:07:23;;;;;;;2.53;2.30;;;19.40;73.90;;;;;;10377534;28;20219;-63
2021/08/31 22:12:46;;;;;;;3.33;2.27;;;19.40;73.30;;;;;;10376615;28;20197;-62
2021/08/31 22:18:08;;;;;;;2.77;2.23;;;19.40;73.80;;;;;;10376584;28;20218;-63
2021/08/31 22:23:30;;;;;;;2.97;2.23;;;19.40;74.20;;;;;;10376914;28;20637;-61
2021/08/31 22:28:54;;;;;;;2.40;2.10;;;19.40;73.30;;;;;;10376930;28;20224;-63
2021/08/31 22:34:16;;;;;;;2.33;2.13;;;19.40;74.00;;;;;;10376123;28;20194;-63
2021/08/31 22:39:38;;;;;;;2.40;2.20;;;19.40;73.80;;;;;;10376336;28;20202;-64
2021/08/31 22:45:02;;;;;;;2.40;2.20;;;19.40;73.60;;;;;;10375411;28;20575;-64
2021/08/31 22:50:24;;;;;;;2.47;2.07;;;19.40;73.40;;;;;;10372128;28;20199;-63
2021/08/31 22:55:46;;;;;;;2.07;1.87;;;19.40;73.80;;;;;;10334426;28;20576;-63
2021/08/31 23:01:09;;;;;;;2.23;2.03;;;19.40;73.70;;;;;;10366914;28;20705;-63
2021/08/31 23:06:31;;;;;;;2.97;2.10;;;19.40;73.20;;;;;;10376331;28;20218;-62
2021/08/31 23:11:53;;;;;;;2.33;1.87;;;19.40;73.80;;;;;;10375576;28;20728;-61
2021/08/31 23:17:17;;;;;;;2.27;1.80;;;19.40;73.90;;;;;;10374449;28;20226;-62
2021/08/31 23:22:39;;;;;;;2.80;2.03;;;19.40;73.20;;;;;;10375306;28;20207;-62
2021/08/31 23:28:01;;;;;;;2.47;2.03;;;19.40;73.80;;;;;;10375376;28;20214;-62
2021/08/31 23:33:25;;;;;;;2.23;2.03;;;19.40;73.80;;;;;;10373225;28;20326;-63
2021/08/31 23:38:47;;;;;;;2.10;1.90;;;19.40;73.40;;;;;;10372920;28;20226;-59
2021/08/31 23:44:09;;;;;;;1.93;1.70;;;19.40;74.00;;;;;;10374359;28;20202;-63
2021/08/31 23:49:32;;;;;;;2.30;2.10;;;19.40;73.90;;;;;;10523839;23;20235;-65
2021/08/31 23:54:54;;;;;;;1.90;1.67;;;19.40;73.60;;;;;;10503974;28;20739;-65
